createdAt,value
2022-10-11T00:03:56.699Z,9.63
2022-10-11T00:09:01.869Z,9.61
2022-10-11T00:14:06.923Z,9.66
2022-10-11T00:19:12.760Z,9.67
2022-10-11T00:24:17.338Z,9.62
2022-10-11T00:29:21.358Z,9.58
2022-10-11T00:34:25.259Z,9.56
2022-10-11T00:39:29.722Z,9.58
2022-10-11T00:44:34.287Z,9.59
2022-10-11T00:49:57.237Z,9.62
2022-10-11T00:55:06.529Z,9.70
2022-10-11T01:00:14.114Z,9.73
2022-10-11T01:05:29.605Z,9.72
2022-10-11T01:10:34.945Z,9.74
2022-10-11T01:15:48.647Z,9.78
2022-10-11T01:21:02.520Z,9.77
2022-10-11T01:26:27.569Z,9.80
2022-10-11T01:32:00.291Z,9.86
2022-10-11T01:37:17.063Z,9.99
2022-10-11T01:42:21.005Z,10.03
2022-10-11T01:47:25.571Z,10.08
2022-10-11T01:52:33.345Z,10.12
2022-10-11T01:57:46.282Z,10.17
2022-10-11T02:02:56.209Z,10.11
2022-10-11T02:08:28.140Z,10.01
2022-10-11T02:13:50.680Z,9.90
2022-10-11T02:18:57.371Z,9.89
2022-10-11T02:24:06.310Z,9.95
2022-10-11T02:29:14.271Z,9.97
2022-10-11T02:34:25.692Z,9.93
2022-10-11T02:40:04.554Z,9.90
2022-10-11T02:45:19.318Z,9.91
2022-10-11T02:50:23.732Z,9.93
2022-10-11T02:55:30.284Z,9.87
2022-10-11T03:00:34.401Z,9.78
2022-10-11T03:05:41.193Z,9.58
2022-10-11T03:10:45.789Z,9.49
2022-10-11T03:16:02.816Z,9.37
2022-10-11T03:21:07.522Z,9.23
2022-10-11T03:26:11.419Z,9.16
2022-10-11T03:31:15.324Z,9.05
2022-10-11T03:36:19.102Z,8.95
2022-10-11T03:41:22.589Z,8.86
2022-10-11T03:46:26.361Z,8.76
2022-10-11T03:51:29.899Z,8.61
2022-10-11T03:56:33.613Z,8.54
2022-10-11T04:01:38.877Z,8.51
2022-10-11T04:06:42.629Z,8.49
2022-10-11T04:11:46.277Z,8.46
2022-10-11T04:16:49.394Z,8.40
2022-10-11T04:21:53.613Z,8.34
2022-10-11T04:26:57.410Z,8.20
2022-10-11T04:32:01.566Z,8.07
2022-10-11T04:37:06.274Z,7.98
2022-10-11T04:42:10.900Z,7.94
2022-10-11T04:47:15.470Z,7.89
2022-10-11T04:52:23.339Z,7.80
2022-10-11T04:57:30.380Z,7.66
2022-10-11T05:02:35.708Z,7.56
2022-10-11T05:07:39.793Z,7.53
2022-10-11T05:12:44.256Z,7.66
2022-10-11T05:17:49.882Z,7.86
2022-10-11T05:22:54.355Z,8.09
2022-10-11T05:27:59.642Z,8.39
2022-10-11T05:33:04.259Z,8.75
2022-10-11T05:38:09.866Z,9.14
2022-10-11T05:43:15.155Z,9.47
2022-10-11T05:48:20.214Z,9.67
2022-10-11T05:53:24.694Z,9.80
2022-10-11T05:58:31.232Z,9.95
2022-10-11T06:03:35.971Z,10.06
2022-10-11T06:08:40.494Z,10.13
2022-10-11T06:13:45.081Z,10.28
2022-10-11T06:18:48.635Z,10.38
2022-10-11T06:23:59.890Z,10.48
2022-10-11T06:29:05.932Z,10.53
2022-10-11T06:34:09.982Z,10.54
2022-10-11T06:39:13.262Z,10.65
2022-10-11T06:44:17.124Z,10.75
2022-10-11T06:49:23.496Z,10.84
2022-10-11T06:54:28.689Z,10.96
2022-10-11T06:59:32.820Z,11.02
2022-10-11T07:04:39.659Z,11.03
2022-10-11T07:09:44.136Z,11.04
2022-10-11T07:14:47.681Z,11.10
2022-10-11T07:19:51.654Z,11.15
2022-10-11T07:24:55.315Z,11.12
2022-10-11T07:29:59.548Z,11.18
2022-10-11T07:35:04.060Z,11.30
2022-10-11T07:40:15.881Z,11.37
2022-10-11T07:45:21.861Z,11.45
2022-10-11T07:50:25.792Z,11.55
2022-10-11T07:55:31.586Z,11.70
2022-10-11T08:00:35.275Z,11.84
2022-10-11T08:05:39.576Z,11.97
2022-10-11T08:10:45.996Z,12.12
2022-10-11T08:15:50.300Z,12.27
2022-10-11T08:20:54.452Z,12.41
2022-10-11T08:25:58.922Z,12.60
2022-10-11T08:31:03.356Z,12.78
2022-10-11T08:36:08.884Z,12.89
2022-10-11T08:41:27.822Z,13.03
2022-10-11T08:46:39.586Z,13.44
2022-10-11T08:51:52.391Z,13.63
2022-10-11T08:56:57.293Z,13.55
2022-10-11T09:02:43.665Z,13.89
2022-10-11T09:08:02.058Z,14.43
2022-10-11T09:13:09.352Z,14.52
2022-10-11T09:18:13.549Z,14.67
2022-10-11T09:23:41.516Z,15.03
2022-10-11T09:29:01.722Z,14.82
2022-10-11T09:34:15.135Z,14.88
2022-10-11T09:39:34.300Z,15.21
2022-10-11T09:44:48.048Z,15.59
2022-10-11T09:50:00.844Z,15.94
2022-10-11T09:55:05.874Z,16.05
2022-10-11T10:00:12.972Z,15.61
2022-10-11T10:05:22.043Z,15.16
2022-10-11T10:10:39.798Z,15.13
2022-10-11T10:15:47.853Z,15.54
2022-10-11T10:20:55.424Z,15.96
2022-10-11T10:26:23.818Z,16.48
2022-10-11T10:32:02.003Z,16.57
2022-10-11T10:37:12.381Z,16.65
2022-10-11T10:42:19.072Z,16.64
2022-10-11T10:47:41.267Z,16.17
2022-10-11T10:52:48.473Z,16.21
2022-10-11T10:58:18.668Z,16.46
2022-10-11T11:04:01.508Z,16.74
2022-10-11T11:09:25.883Z,16.99
2022-10-11T11:14:53.828Z,17.35
2022-10-11T11:20:23.279Z,17.59
2022-10-11T11:25:50.074Z,17.55
2022-10-11T11:31:12.940Z,17.28
2022-10-11T11:36:27.432Z,17.32
2022-10-11T11:41:40.108Z,17.17
2022-10-11T11:46:58.794Z,16.84
2022-10-11T11:52:06.148Z,16.96
2022-10-11T11:57:34.715Z,16.87
2022-10-11T12:02:57.204Z,16.82
2022-10-11T12:08:06.992Z,16.41
2022-10-11T12:13:35.440Z,16.43
2022-10-11T12:18:57.916Z,16.42
2022-10-11T12:24:21.110Z,16.13
2022-10-11T12:29:54.801Z,15.84
2022-10-11T12:35:33.930Z,15.78
2022-10-11T12:40:43.588Z,15.83
2022-10-11T12:45:48.939Z,15.86
2022-10-11T12:51:05.826Z,15.53
2022-10-11T12:56:16.722Z,15.29
2022-10-11T13:01:24.161Z,15.26
2022-10-11T13:06:35.519Z,15.53
2022-10-11T13:11:54.160Z,15.79
2022-10-11T13:16:59.414Z,15.97
2022-10-11T13:22:07.704Z,16.07
2022-10-11T13:27:22.811Z,16.20
2022-10-11T13:32:30.748Z,16.03
2022-10-11T13:37:45.034Z,15.79
2022-10-11T13:42:52.253Z,15.60
2022-10-11T13:48:00.827Z,15.70
2022-10-11T13:53:24.177Z,15.82
2022-10-11T13:58:37.439Z,15.95
2022-10-11T14:03:48.842Z,15.71
2022-10-11T14:08:56.404Z,15.48
2022-10-11T14:14:01.044Z,15.18
2022-10-11T14:19:12.727Z,14.97
2022-10-11T14:24:19.356Z,14.75
2022-10-11T14:29:33.801Z,14.59
2022-10-11T14:34:38.670Z,14.44
2022-10-11T14:39:44.167Z,14.29
2022-10-11T14:44:48.164Z,14.16
2022-10-11T14:49:52.605Z,14.13
2022-10-11T14:54:56.810Z,14.08
2022-10-11T15:00:00.751Z,14.01
2022-10-11T15:05:04.234Z,13.93
2022-10-11T15:10:24.758Z,13.82
2022-10-11T15:15:31.169Z,13.71
2022-10-11T15:20:41.517Z,13.59
2022-10-11T15:25:46.399Z,13.43
2022-10-11T15:30:50.536Z,13.27
2022-10-11T15:35:55.465Z,13.07
2022-10-11T15:41:03.161Z,12.87
2022-10-11T15:46:08.347Z,12.62
2022-10-11T15:51:13.491Z,12.35
2022-10-11T15:56:21.255Z,12.06
2022-10-11T16:01:25.447Z,11.75
2022-10-11T16:06:30.782Z,11.41
2022-10-11T16:11:34.726Z,11.07
2022-10-11T16:16:38.527Z,10.86
2022-10-11T16:21:41.793Z,10.57
2022-10-11T16:26:46.033Z,10.28
2022-10-11T16:31:50.469Z,10.05
2022-10-11T16:36:55.725Z,9.81
2022-10-11T16:41:59.455Z,9.49
2022-10-11T16:47:06.810Z,9.21
2022-10-11T16:52:15.780Z,9.11
2022-10-11T16:57:20.386Z,9.05
2022-10-11T17:02:32.263Z,8.92
2022-10-11T17:07:36.548Z,8.85
2022-10-11T17:12:40.835Z,8.64
2022-10-11T17:17:46.081Z,8.39
2022-10-11T17:22:51.828Z,8.31
2022-10-11T17:27:57.396Z,8.26
2022-10-11T17:33:03.576Z,8.16
2022-10-11T17:38:08.455Z,7.92
2022-10-11T17:43:12.198Z,7.67
2022-10-11T17:48:15.935Z,7.54
2022-10-11T17:53:19.837Z,7.51
2022-10-11T17:58:23.542Z,7.56
2022-10-11T18:03:30.904Z,7.51
2022-10-11T18:08:40.464Z,7.33
2022-10-11T18:13:48.418Z,7.16
2022-10-11T18:18:52.573Z,6.96
2022-10-11T18:24:00.417Z,6.89
2022-10-11T18:29:04.181Z,6.84
2022-10-11T18:34:11.017Z,6.65
2022-10-11T18:39:15.536Z,6.45
2022-10-11T18:44:20.006Z,6.27
2022-10-11T18:49:23.891Z,6.18
2022-10-11T18:54:28.154Z,6.19
2022-10-11T18:59:33.634Z,6.10
2022-10-11T19:04:43.044Z,5.99
2022-10-11T19:09:50.833Z,5.90
2022-10-11T19:14:56.500Z,5.86
2022-10-11T19:20:02.206Z,5.81
2022-10-11T19:25:08.257Z,5.68
2022-10-11T19:30:13.466Z,5.55
2022-10-11T19:35:20.150Z,5.45
2022-10-11T19:40:29.154Z,5.39
2022-10-11T19:45:36.245Z,5.32
2022-10-11T19:50:40.074Z,5.26
2022-10-11T19:55:46.463Z,5.20
2022-10-11T20:01:01.383Z,5.15
2022-10-11T20:06:08.883Z,4.97
2022-10-11T20:11:17.132Z,4.79
2022-10-11T20:16:27.776Z,4.77
2022-10-11T20:21:33.536Z,4.70
2022-10-11T20:26:38.135Z,4.60
2022-10-11T20:31:43.983Z,4.50
2022-10-11T20:36:49.214Z,4.52
2022-10-11T20:41:54.595Z,4.57
2022-10-11T20:47:03.728Z,4.51
2022-10-11T20:52:08.868Z,4.38
2022-10-11T20:57:12.320Z,4.23
2022-10-11T21:02:18.918Z,4.05
2022-10-11T21:07:22.355Z,4.04
2022-10-11T21:12:26.067Z,4.00
2022-10-11T21:17:29.723Z,3.91
2022-10-11T21:22:34.189Z,3.82
2022-10-11T21:27:39.459Z,3.82
2022-10-11T21:32:45.472Z,3.87
2022-10-11T21:37:49.882Z,3.84
2022-10-11T21:42:54.584Z,3.84
2022-10-11T21:47:59.373Z,3.82
2022-10-11T21:53:03.300Z,3.71
2022-10-11T21:58:07.019Z,3.57
2022-10-11T22:03:11.410Z,3.52
2022-10-11T22:08:22.012Z,3.49
2022-10-11T22:13:27.564Z,3.42
2022-10-11T22:18:33.622Z,3.33
2022-10-11T22:23:37.916Z,3.24
2022-10-11T22:28:41.727Z,3.25
2022-10-11T22:38:54.964Z,3.28
2022-10-11T22:43:58.177Z,3.20
2022-10-11T22:49:01.814Z,3.09
2022-10-11T22:54:06.084Z,3.09
2022-10-11T22:59:10.106Z,3.14
2022-10-11T23:04:13.856Z,3.10
2022-10-11T23:09:18.013Z,2.97
2022-10-11T23:14:22.270Z,2.89
2022-10-11T23:19:25.964Z,2.88
2022-10-11T23:24:30.002Z,2.94
2022-10-11T23:29:34.065Z,2.93
2022-10-11T23:34:37.977Z,2.92
2022-10-11T23:39:42.252Z,2.85
2022-10-11T23:44:46.799Z,2.74
2022-10-11T23:49:50.437Z,2.69
2022-10-11T23:54:54.170Z,2.74
2022-10-11T23:59:58.289Z,2.74
